Terminal Aerodrome Forecast
Issued by NWS Melbourne, FL

Home | Current Version | Previous Version | Text Only | Print | Product List | Glossary On
Versions: 1 2 3 4 5 6 7 8 9 10 11 12 13 14
000
FTUS42 KMLB 270520
TAFVRB
TAF
KVRB 270520Z 2706/2806 19003KT P6SM FEW030 BKN080
     FM271400 21004KT P6SM SCT025
     FM271600 10010KT P6SM VCTS BKN035CB BKN060
      TEMPO 2717/2720 3SM TSRA BKN025CB
     FM280000 07005KT P6SM VCSH SCT025 BKN070=

USA.gov is the U.S. government's official web portal to all federal, state and local government web resources and services.